createdAt,value
2023-01-29T00:02:10.803Z,99620.97
2023-01-29T00:05:27.392Z,99621.88
2023-01-29T00:08:33.317Z,99609.69
2023-01-29T00:11:35.269Z,99607.09
2023-01-29T00:14:36.854Z,99596.44
2023-01-29T00:17:38.369Z,99604.34
2023-01-29T00:20:43.089Z,99588.66
2023-01-29T00:23:46.322Z,99590.41
2023-01-29T00:26:50.452Z,99587.81
2023-01-29T00:30:08.984Z,99585.19
2023-01-29T00:33:11.965Z,99579.16
2023-01-29T00:36:15.112Z,99572.25
2023-01-29T00:39:29.360Z,99579.25
2023-01-29T00:42:59.103Z,99576.69
2023-01-29T00:46:00.673Z,99573.25
2023-01-29T00:49:04.526Z,99575.91
2023-01-29T00:52:24.402Z,99580.28
2023-01-29T00:55:27.520Z,99588.16
2023-01-29T00:58:34.338Z,99587.28
2023-01-29T01:01:54.891Z,99583.81
2023-01-29T01:04:56.480Z,99587.34
2023-01-29T01:07:58.632Z,99576.88
2023-01-29T01:11:02.707Z,99579.50
2023-01-29T01:14:04.386Z,99583.00
2023-01-29T01:17:06.277Z,99588.28
2023-01-29T01:20:11.105Z,99600.63
2023-01-29T01:23:13.104Z,99594.47
2023-01-29T01:26:16.029Z,99576.16
2023-01-29T01:29:17.620Z,99575.34
2023-01-29T01:32:19.380Z,99568.41
2023-01-29T01:35:21.088Z,99573.63
2023-01-29T01:38:22.612Z,99569.31
2023-01-29T01:41:25.722Z,99564.97
2023-01-29T01:44:46.179Z,99557.16
2023-01-29T01:47:49.574Z,99552.81
2023-01-29T01:50:53.749Z,99551.13
2023-01-29T01:53:58.009Z,99553.78
2023-01-29T01:57:09.283Z,99555.59
2023-01-29T02:00:13.028Z,99550.34
2023-01-29T02:03:38.770Z,99542.56
2023-01-29T02:06:59.485Z,99546.91
2023-01-29T02:10:06.277Z,99547.84
2023-01-29T02:13:09.477Z,99549.59
2023-01-29T02:16:11.772Z,99547.78
2023-01-29T02:19:17.104Z,99555.66
2023-01-29T02:22:29.236Z,99560.88
2023-01-29T02:25:42.419Z,99560.06
2023-01-29T02:28:49.107Z,99560.91
2023-01-29T02:32:01.851Z,99563.47
2023-01-29T02:35:28.911Z,99562.56
2023-01-29T02:38:36.034Z,99561.69
2023-01-29T02:41:42.542Z,99556.44
2023-01-29T02:44:49.035Z,99552.88
2023-01-29T02:47:55.521Z,99555.47
2023-01-29T02:50:59.573Z,99567.72
2023-01-29T02:54:04.185Z,99579.84
2023-01-29T02:57:09.990Z,99568.53
2023-01-29T03:00:16.271Z,99568.56
2023-01-29T03:03:19.405Z,99571.19
2023-01-29T03:06:23.184Z,99581.63
2023-01-29T03:09:28.295Z,99574.69
2023-01-29T03:12:34.305Z,99580.81
2023-01-29T03:15:46.924Z,99577.38
2023-01-29T03:19:07.252Z,99569.41
2023-01-29T03:22:11.180Z,99564.13
2023-01-29T03:25:33.164Z,99559.78
2023-01-29T03:28:53.591Z,99555.38
2023-01-29T03:32:05.579Z,99552.72
2023-01-29T03:35:09.914Z,99556.25
2023-01-29T03:38:12.131Z,99552.72
2023-01-29T03:41:17.605Z,99550.97
2023-01-29T03:44:21.893Z,99546.59
2023-01-29T03:47:27.411Z,99545.72
2023-01-29T03:50:32.763Z,99547.50
2023-01-29T03:53:44.069Z,99546.59
2023-01-29T03:56:55.231Z,99551.91
2023-01-29T04:00:02.188Z,99553.69
2023-01-29T04:03:33.214Z,99552.81
2023-01-29T04:06:37.212Z,99543.19
2023-01-29T04:09:45.898Z,99545.78
2023-01-29T04:12:50.402Z,99540.59
2023-01-29T04:15:55.855Z,99539.72
2023-01-29T04:19:15.619Z,99519.69
2023-01-29T04:22:20.232Z,99523.25
2023-01-29T04:25:27.017Z,99503.28
2023-01-29T04:28:39.358Z,99506.84
2023-01-29T04:31:45.754Z,99497.34
2023-01-29T04:34:56.771Z,99493.91
2023-01-29T04:38:06.313Z,99485.19
2023-01-29T04:41:11.608Z,99459.94
2023-01-29T04:44:18.642Z,99452.09
2023-01-29T04:47:24.754Z,99447.75
2023-01-29T04:50:29.444Z,99440.78
2023-01-29T04:53:37.514Z,99432.13
2023-01-29T04:56:42.520Z,99434.75
2023-01-29T04:59:47.083Z,99431.31
2023-01-29T05:02:49.386Z,99426.94
2023-01-29T05:05:54.136Z,99420.84
2023-01-29T05:08:57.193Z,99421.72
2023-01-29T05:11:59.888Z,99431.22
2023-01-29T05:15:03.109Z,99434.69
2023-01-29T05:18:08.727Z,99431.28
2023-01-29T05:21:11.863Z,99434.78
2023-01-29T05:24:15.542Z,99443.53
2023-01-29T05:27:36.807Z,99435.66
2023-01-29T05:30:39.270Z,99442.66
2023-01-29T05:33:41.233Z,99439.13
2023-01-29T05:36:44.377Z,99444.38
2023-01-29T05:39:45.925Z,99455.69
2023-01-29T05:42:47.602Z,99453.94
2023-01-29T05:45:53.693Z,99446.09
2023-01-29T05:48:55.283Z,99448.78
2023-01-29T05:51:58.286Z,99448.00
2023-01-29T05:54:59.832Z,99444.50
2023-01-29T05:58:01.465Z,99469.81
2023-01-29T06:01:10.018Z,99476.81
2023-01-29T06:04:11.646Z,99483.78
2023-01-29T06:07:14.564Z,99480.31
2023-01-29T06:10:17.907Z,99485.53
2023-01-29T06:13:19.845Z,99482.94
2023-01-29T06:16:21.421Z,99465.47
2023-01-29T06:19:23.185Z,99472.47
2023-01-29T06:22:26.366Z,99482.03
2023-01-29T06:25:28.112Z,99493.34
2023-01-29T06:28:29.740Z,99484.66
2023-01-29T06:31:38.921Z,99475.94
2023-01-29T06:34:41.070Z,99488.06
2023-01-29T06:37:44.992Z,99482.84
2023-01-29T06:40:46.526Z,99487.16
2023-01-29T06:43:48.243Z,99491.53
2023-01-29T06:46:52.155Z,99476.69
2023-01-29T06:49:53.938Z,99487.16
2023-01-29T06:52:59.358Z,99479.31
2023-01-29T06:56:00.842Z,99483.66
2023-01-29T06:59:02.971Z,99490.59
2023-01-29T07:02:04.593Z,99494.00
2023-01-29T07:05:06.476Z,99501.81
2023-01-29T07:08:09.855Z,99501.84
2023-01-29T07:11:11.846Z,99507.94
2023-01-29T07:14:13.589Z,99499.16
2023-01-29T07:17:15.283Z,99503.53
2023-01-29T07:20:19.908Z,99509.63
2023-01-29T07:23:23.039Z,99518.38
2023-01-29T07:26:24.857Z,99515.72
2023-01-29T07:29:26.713Z,99507.00
2023-01-29T07:32:28.925Z,99503.50
2023-01-29T07:35:30.766Z,99496.53
2023-01-29T07:38:33.921Z,99499.13
2023-01-29T07:41:39.240Z,99493.78
2023-01-29T07:44:50.334Z,99502.50
2023-01-29T07:47:52.425Z,99511.22
2023-01-29T07:50:55.350Z,99506.88
2023-01-29T07:53:58.560Z,99492.13
2023-01-29T07:57:00.200Z,99484.22
2023-01-29T08:00:01.924Z,99467.63
2023-01-29T08:03:16.252Z,99470.25
2023-01-29T08:06:18.372Z,99478.06
2023-01-29T08:09:21.441Z,99482.47
2023-01-29T08:12:23.300Z,99465.97
2023-01-29T08:15:25.457Z,99446.72
2023-01-29T08:18:27.116Z,99442.44
2023-01-29T08:21:29.193Z,99438.88
2023-01-29T08:24:47.476Z,99431.94
2023-01-29T08:27:53.997Z,99425.00
2023-01-29T08:30:55.604Z,99420.66
2023-01-29T08:33:59.040Z,99433.75
2023-01-29T08:37:00.790Z,99437.25
2023-01-29T08:40:04.196Z,99426.81
2023-01-29T08:43:08.682Z,99432.06
2023-01-29T08:46:10.789Z,99434.84
2023-01-29T08:49:12.464Z,99426.06
2023-01-29T08:52:14.189Z,99426.09
2023-01-29T08:55:17.720Z,99429.66
2023-01-29T08:58:20.246Z,99422.72
2023-01-29T09:01:22.027Z,99423.59
2023-01-29T09:04:23.560Z,99427.13
2023-01-29T09:07:25.421Z,99431.53
2023-01-29T09:10:28.431Z,99435.94
2023-01-29T09:13:30.285Z,99426.38
2023-01-29T09:16:31.936Z,99430.75
2023-01-29T09:19:33.448Z,99433.41
2023-01-29T09:22:35.672Z,99426.53
2023-01-29T09:25:39.343Z,99424.00
2023-01-29T09:28:41.147Z,99426.75
2023-01-29T09:31:43.096Z,99426.84
2023-01-29T09:34:44.643Z,99419.09
2023-01-29T09:37:47.518Z,99416.50
2023-01-29T09:40:55.607Z,99426.97
2023-01-29T09:43:59.746Z,99428.72
2023-01-29T09:47:04.382Z,99428.75
2023-01-29T09:50:09.037Z,99421.78
2023-01-29T09:53:16.659Z,99414.00
2023-01-29T09:56:20.840Z,99407.03
2023-01-29T09:59:23.882Z,99404.41
2023-01-29T10:02:41.431Z,99407.91
2023-01-29T10:05:50.988Z,99402.78
2023-01-29T10:09:10.764Z,99408.91
2023-01-29T10:12:20.093Z,99384.50
2023-01-29T10:15:28.712Z,99381.06
2023-01-29T10:18:40.994Z,99381.97
2023-01-29T10:21:52.683Z,99380.25
2023-01-29T10:24:57.827Z,99374.19
2023-01-29T10:28:01.754Z,99360.22
2023-01-29T10:31:06.971Z,99355.88
2023-01-29T10:34:12.730Z,99353.25
2023-01-29T10:37:17.018Z,99349.72
2023-01-29T10:40:20.652Z,99345.34
2023-01-29T10:43:30.455Z,99337.50
2023-01-29T10:46:37.976Z,99332.28
2023-01-29T10:49:50.314Z,99320.06
2023-01-29T10:53:11.357Z,99321.88
2023-01-29T10:56:23.523Z,99318.34
2023-01-29T10:59:37.205Z,99331.50
2023-01-29T11:02:43.457Z,99327.16
2023-01-29T11:05:51.533Z,99326.28
2023-01-29T11:08:56.351Z,99324.59
2023-01-29T11:12:00.915Z,99317.59
2023-01-29T11:15:09.089Z,99309.75
2023-01-29T11:18:14.247Z,99301.06
2023-01-29T11:21:16.775Z,99306.34
2023-01-29T11:24:19.099Z,99295.00
2023-01-29T11:27:24.019Z,99290.69
2023-01-29T11:30:29.593Z,99277.59
2023-01-29T11:33:31.884Z,99263.59
2023-01-29T11:36:36.502Z,99269.72
2023-01-29T11:39:43.866Z,99262.78
2023-01-29T11:42:46.169Z,99254.03
2023-01-29T11:45:51.768Z,99243.56
2023-01-29T11:48:59.374Z,99234.81
2023-01-29T11:52:13.222Z,99228.69
2023-01-29T11:55:19.273Z,99233.94
2023-01-29T11:58:23.262Z,99240.06
2023-01-29T12:01:31.122Z,99234.88
2023-01-29T12:04:33.289Z,99235.75
2023-01-29T12:11:11.292Z,99223.50
2023-01-29T12:14:24.193Z,99232.25
2023-01-29T12:17:30.729Z,99216.50
2023-01-29T12:20:35.995Z,99210.38
2023-01-29T12:23:41.664Z,99204.28
2023-01-29T12:26:46.970Z,99208.69
2023-01-29T12:29:53.024Z,99199.00
2023-01-29T12:32:59.687Z,99192.94
2023-01-29T12:36:05.547Z,99178.91
2023-01-29T12:39:10.464Z,99178.94
2023-01-29T12:42:15.392Z,99163.16
2023-01-29T12:45:18.700Z,99166.69
2023-01-29T12:48:25.047Z,99156.19
2023-01-29T12:51:31.328Z,99136.94
2023-01-29T12:54:35.445Z,99133.44
2023-01-29T12:57:40.312Z,99135.19
2023-01-29T13:00:44.255Z,99123.81
2023-01-29T13:03:51.100Z,99115.94
2023-01-29T13:06:56.604Z,99119.47
2023-01-29T13:10:04.425Z,99121.19
2023-01-29T13:13:12.858Z,99110.69
2023-01-29T13:16:15.898Z,99113.31
2023-01-29T13:19:24.083Z,99111.56
2023-01-29T13:22:27.255Z,99129.06
2023-01-29T13:25:29.014Z,99134.31
2023-01-29T13:28:30.627Z,99118.56
2023-01-29T13:31:34.159Z,99129.97
2023-01-29T13:34:43.526Z,99134.34
2023-01-29T13:37:48.459Z,99116.84
2023-01-29T13:40:51.011Z,99119.47
2023-01-29T13:43:52.704Z,99115.06
2023-01-29T13:46:57.044Z,99115.06
2023-01-29T13:50:03.301Z,99115.94
2023-01-29T13:53:06.727Z,99115.06
2023-01-29T13:56:27.517Z,99111.56
2023-01-29T13:59:46.455Z,99115.06
2023-01-29T14:02:48.259Z,99102.84
2023-01-29T14:05:59.873Z,99106.31
2023-01-29T14:09:01.788Z,99094.09
2023-01-29T14:12:04.158Z,99098.47
2023-01-29T14:15:21.757Z,99097.59
2023-01-29T14:18:26.251Z,99085.34
2023-01-29T14:21:32.190Z,99080.97
2023-01-29T14:24:34.122Z,99082.72
2023-01-29T14:27:37.659Z,99088.81
2023-01-29T14:30:41.120Z,99092.31
2023-01-29T14:33:44.434Z,99088.81
2023-01-29T14:36:50.820Z,99088.81
2023-01-29T14:39:53.334Z,99082.69
2023-01-29T14:42:57.510Z,99084.44
2023-01-29T14:46:33.148Z,99081.81
2023-01-29T14:49:54.441Z,99074.81
2023-01-29T14:53:02.039Z,99066.94
2023-01-29T14:56:05.389Z,99076.56
2023-01-29T14:59:16.408Z,99078.31
2023-01-29T15:02:20.464Z,99073.06
2023-01-29T15:05:25.014Z,99070.44
2023-01-29T15:08:32.908Z,99067.81
2023-01-29T15:11:40.693Z,99068.69
2023-01-29T15:14:47.849Z,99062.56
2023-01-29T15:17:55.228Z,99075.66
2023-01-29T15:21:12.029Z,99067.78
2023-01-29T15:24:15.744Z,99056.41
2023-01-29T15:27:18.764Z,99061.66
2023-01-29T15:30:23.288Z,99052.91
2023-01-29T15:33:25.260Z,99048.53
2023-01-29T15:36:28.703Z,99045.06
2023-01-29T15:39:32.040Z,99049.38
2023-01-29T15:42:44.649Z,99044.13
2023-01-29T15:45:47.391Z,99040.66
2023-01-29T15:48:50.304Z,99042.41
2023-01-29T15:51:56.947Z,99032.78
2023-01-29T15:55:03.601Z,99029.28
2023-01-29T15:58:06.699Z,99032.78
2023-01-29T16:01:09.080Z,99025.78
2023-01-29T16:04:13.008Z,99017.91
2023-01-29T16:07:14.943Z,99013.50
2023-01-29T16:10:20.075Z,98998.66
2023-01-29T16:13:22.882Z,99011.75
2023-01-29T16:16:26.020Z,99001.28
2023-01-29T16:19:28.666Z,99001.28
2023-01-29T16:22:32.695Z,98999.53
2023-01-29T16:25:38.963Z,98996.91
2023-01-29T16:28:41.032Z,98997.78
2023-01-29T16:31:43.963Z,98989.03
2023-01-29T16:34:52.160Z,98983.78
2023-01-29T16:37:57.469Z,98981.16
2023-01-29T16:41:13.445Z,98984.66
2023-01-29T16:44:30.273Z,98979.41
2023-01-29T16:47:33.691Z,98974.19
2023-01-29T16:50:43.373Z,98975.94
2023-01-29T16:53:53.121Z,98966.28
2023-01-29T16:56:59.145Z,98966.31
2023-01-29T17:00:03.528Z,98950.56
2023-01-29T17:03:07.725Z,98950.56
2023-01-29T17:06:09.827Z,98934.84
2023-01-29T17:09:20.520Z,98926.09
2023-01-29T17:12:25.570Z,98926.09
2023-01-29T17:15:29.706Z,98913.00
2023-01-29T17:18:31.933Z,98917.38
2023-01-29T17:21:33.705Z,98907.75
2023-01-29T17:24:35.365Z,98907.75
2023-01-29T17:27:40.175Z,98894.63
2023-01-29T17:30:44.699Z,98898.13
2023-01-29T17:33:47.396Z,98894.63
2023-01-29T17:36:51.033Z,98895.53
2023-01-29T17:39:53.075Z,98897.28
2023-01-29T17:42:56.074Z,98897.28
2023-01-29T17:45:58.021Z,98889.41
2023-01-29T17:48:59.749Z,98885.91
2023-01-29T17:52:01.829Z,98883.28
2023-01-29T17:55:04.105Z,98892.03
2023-01-29T17:58:12.961Z,98878.03
2023-01-29T18:01:14.939Z,98891.13
2023-01-29T18:04:17.235Z,98900.78
2023-01-29T18:07:19.130Z,98887.66
2023-01-29T18:10:21.681Z,98883.31
2023-01-29T18:13:24.764Z,98881.56
2023-01-29T18:16:26.877Z,98883.31
2023-01-29T18:19:31.190Z,98878.91
2023-01-29T18:22:32.894Z,98872.78
2023-01-29T18:25:34.817Z,98870.19
2023-01-29T18:28:38.303Z,98859.66
2023-01-29T18:31:39.909Z,98866.66
2023-01-29T18:34:41.607Z,98857.94
2023-01-29T18:37:43.441Z,98852.69
2023-01-29T18:40:45.127Z,98836.97
2023-01-29T18:43:48.052Z,98843.09
2023-01-29T18:46:49.955Z,98832.56
2023-01-29T18:49:52.172Z,98836.06
2023-01-29T18:52:54.643Z,98825.59
2023-01-29T18:55:56.817Z,98814.22
2023-01-29T18:59:00.202Z,98803.75
2023-01-29T19:02:02.877Z,98809.84
2023-01-29T19:05:05.088Z,98804.59
2023-01-29T19:08:07.218Z,98800.22
2023-01-29T19:11:09.121Z,98789.75
2023-01-29T19:14:12.212Z,98782.75
2023-01-29T19:17:13.935Z,98775.78
2023-01-29T19:20:16.268Z,98772.28
2023-01-29T19:23:17.991Z,98786.25
2023-01-29T19:26:19.702Z,98775.78
2023-01-29T19:29:23.338Z,98766.13
2023-01-29T19:32:25.981Z,98756.50
2023-01-29T19:35:28.576Z,98755.66
2023-01-29T19:38:33.461Z,98747.78
2023-01-29T19:41:35.395Z,98746.03
2023-01-29T19:44:39.898Z,98727.66
2023-01-29T19:47:43.411Z,98729.41
2023-01-29T19:50:50.844Z,98725.91
2023-01-29T19:53:52.694Z,98716.28
2023-01-29T19:56:54.631Z,98710.19
2023-01-29T19:59:57.897Z,98698.81
2023-01-29T20:02:59.791Z,98692.66
2023-01-29T20:06:02.880Z,98698.78
2023-01-29T20:09:05.571Z,98704.91
2023-01-29T20:12:07.220Z,98699.63
2023-01-29T20:15:11.220Z,98707.50
2023-01-29T20:18:12.877Z,98673.38
2023-01-29T20:21:15.324Z,98650.66
2023-01-29T20:24:17.290Z,98646.28
2023-01-29T20:27:19.016Z,98627.91
2023-01-29T20:30:22.157Z,98631.38
2023-01-29T20:33:24.403Z,98624.34
2023-01-29T20:36:26.116Z,98620.88
2023-01-29T20:39:27.896Z,98619.09
2023-01-29T20:42:29.753Z,98620.84
2023-01-29T20:45:33.423Z,98624.31
2023-01-29T20:48:35.188Z,98608.56
2023-01-29T20:51:36.977Z,98609.44
2023-01-29T20:54:38.617Z,98588.44
2023-01-29T20:57:40.494Z,98588.44
2023-01-29T21:00:44.054Z,98588.41
2023-01-29T21:03:46.491Z,98565.63
2023-01-29T21:06:48.362Z,98570.88
2023-01-29T21:09:50.082Z,98569.97
2023-01-29T21:12:51.721Z,98569.97
2023-01-29T21:15:55.059Z,98581.34
2023-01-29T21:18:56.790Z,98573.41
2023-01-29T21:21:58.458Z,98569.91
2023-01-29T21:25:00.021Z,98562.91
2023-01-29T21:28:04.407Z,98548.03
2023-01-29T21:31:10.035Z,98536.66
2023-01-29T21:34:12.017Z,98547.13
2023-01-29T21:37:14.136Z,98539.25
2023-01-29T21:40:16.360Z,98529.59
2023-01-29T21:43:18.291Z,98538.34
2023-01-29T21:46:21.478Z,98522.53
2023-01-29T21:49:23.367Z,98521.59
2023-01-29T21:52:25.132Z,98531.25
2023-01-29T21:55:26.879Z,98520.72
2023-01-29T21:58:28.752Z,98515.47
2023-01-29T22:01:37.951Z,98529.44
2023-01-29T22:04:40.383Z,98518.91
2023-01-29T22:07:42.181Z,98526.78
2023-01-29T22:10:43.877Z,98527.66
2023-01-29T22:13:45.608Z,98523.25
2023-01-29T22:16:48.652Z,98529.38
2023-01-29T22:19:50.527Z,98522.38
2023-01-29T22:22:52.279Z,98508.34
2023-01-29T22:25:53.993Z,98493.47
2023-01-29T22:28:55.666Z,98497.81
2023-01-29T22:31:58.617Z,98517.94
2023-01-29T22:35:00.420Z,98508.28
2023-01-29T22:38:02.369Z,98501.28
2023-01-29T22:41:04.564Z,98507.44
2023-01-29T22:44:06.353Z,98503.91
2023-01-29T22:47:09.564Z,98489.91
2023-01-29T22:50:12.098Z,98496.03
2023-01-29T22:53:13.944Z,98478.53
2023-01-29T22:56:15.711Z,98484.63
2023-01-29T22:59:17.329Z,98479.38
2023-01-29T23:02:22.498Z,98487.22
2023-01-29T23:05:24.281Z,98471.44
2023-01-29T23:08:25.854Z,98476.69
2023-01-29T23:11:27.569Z,98471.44
2023-01-29T23:14:29.259Z,98455.66
2023-01-29T23:17:32.309Z,98467.03
2023-01-29T23:20:34.132Z,98437.25
2023-01-29T23:23:36.864Z,98426.78
2023-01-29T23:26:59.213Z,98396.09
2023-01-29T23:30:00.810Z,98383.00
2023-01-29T23:33:04.045Z,98357.63
2023-01-29T23:36:06.286Z,98340.13
2023-01-29T23:39:08.118Z,98348.88
2023-01-29T23:42:09.731Z,98332.25
2023-01-29T23:45:15.056Z,98319.09
2023-01-29T23:48:18.091Z,98347.13
2023-01-29T23:51:19.820Z,98351.50
2023-01-29T23:54:21.478Z,98358.41
2023-01-29T23:57:23.370Z,98356.63
